sensor_id;sensor_type;location;lat;lon;timestamp;P1;durP1;ratioP1;P2;durP2;ratioP2
20294;SDS011;10306;52.128;5.208;2023-02-04T00:01:48;15.33;;;2.70;;
20294;SDS011;10306;52.128;5.208;2023-02-04T00:04:14;7.30;;;2.30;;
20294;SDS011;10306;52.128;5.208;2023-02-04T00:06:40;8.33;;;2.37;;
20294;SDS011;10306;52.128;5.208;2023-02-04T00:09:06;13.97;;;2.40;;
20294;SDS011;10306;52.128;5.208;2023-02-04T00:11:32;15.03;;;2.03;;
20294;SDS011;10306;52.128;5.208;2023-02-04T00:13:58;5.30;;;2.00;;
20294;SDS011;10306;52.128;5.208;2023-02-04T00:16:25;7.77;;;2.50;;
20294;SDS011;10306;52.128;5.208;2023-02-04T00:18:50;7.37;;;1.80;;
20294;SDS011;10306;52.128;5.208;2023-02-04T00:21:16;15.77;;;2.50;;
20294;SDS011;10306;52.128;5.208;2023-02-04T00:23:42;9.17;;;2.23;;
20294;SDS011;10306;52.128;5.208;2023-02-04T00:26:08;13.33;;;2.60;;
20294;SDS011;10306;52.128;5.208;2023-02-04T00:28:34;7.57;;;2.23;;
20294;SDS011;10306;52.128;5.208;2023-02-04T00:31:00;10.27;;;2.40;;
20294;SDS011;10306;52.128;5.208;2023-02-04T00:33:26;19.30;;;3.13;;
20294;SDS011;10306;52.128;5.208;2023-02-04T00:35:53;11.30;;;2.70;;
20294;SDS011;10306;52.128;5.208;2023-02-04T00:38:19;22.77;;;2.70;;
20294;SDS011;10306;52.128;5.208;2023-02-04T00:40:45;14.83;;;2.73;;
20294;SDS011;10306;52.128;5.208;2023-02-04T00:43:11;13.30;;;3.00;;
20294;SDS011;10306;52.128;5.208;2023-02-04T00:45:36;18.30;;;2.77;;
20294;SDS011;10306;52.128;5.208;2023-02-04T00:48:02;15.67;;;2.60;;
20294;SDS011;10306;52.128;5.208;2023-02-04T00:50:28;13.63;;;2.50;;
20294;SDS011;10306;52.128;5.208;2023-02-04T00:52:54;13.23;;;2.67;;
20294;SDS011;10306;52.128;5.208;2023-02-04T00:55:21;18.17;;;2.97;;
20294;SDS011;10306;52.128;5.208;2023-02-04T00:57:47;14.60;;;2.17;;
20294;SDS011;10306;52.128;5.208;2023-02-04T01:00:13;11.63;;;2.00;;
20294;SDS011;10306;52.128;5.208;2023-02-04T01:02:40;19.60;;;3.00;;
20294;SDS011;10306;52.128;5.208;2023-02-04T01:05:09;11.60;;;2.30;;
20294;SDS011;10306;52.128;5.208;2023-02-04T01:07:35;16.00;;;2.50;;
20294;SDS011;10306;52.128;5.208;2023-02-04T01:10:01;15.33;;;3.03;;
20294;SDS011;10306;52.128;5.208;2023-02-04T01:12:27;19.40;;;2.90;;
20294;SDS011;10306;52.128;5.208;2023-02-04T01:14:53;15.07;;;2.73;;
20294;SDS011;10306;52.128;5.208;2023-02-04T01:17:19;13.37;;;2.30;;
20294;SDS011;10306;52.128;5.208;2023-02-04T01:19:45;12.30;;;2.47;;
20294;SDS011;10306;52.128;5.208;2023-02-04T01:22:12;19.67;;;2.27;;
20294;SDS011;10306;52.128;5.208;2023-02-04T01:24:37;16.67;;;2.73;;
20294;SDS011;10306;52.128;5.208;2023-02-04T01:27:04;16.03;;;2.87;;
20294;SDS011;10306;52.128;5.208;2023-02-04T01:29:30;15.57;;;2.77;;
20294;SDS011;10306;52.128;5.208;2023-02-04T01:31:55;16.17;;;2.50;;
20294;SDS011;10306;52.128;5.208;2023-02-04T01:34:21;13.33;;;2.30;;
20294;SDS011;10306;52.128;5.208;2023-02-04T01:36:49;15.67;;;2.93;;
20294;SDS011;10306;52.128;5.208;2023-02-04T01:39:15;13.03;;;2.77;;
20294;SDS011;10306;52.128;5.208;2023-02-04T01:41:41;14.33;;;2.50;;
20294;SDS011;10306;52.128;5.208;2023-02-04T01:44:07;16.23;;;2.67;;
20294;SDS011;10306;52.128;5.208;2023-02-04T01:46:33;18.87;;;2.70;;
20294;SDS011;10306;52.128;5.208;2023-02-04T01:49:01;14.47;;;3.17;;
20294;SDS011;10306;52.128;5.208;2023-02-04T01:51:27;12.97;;;3.10;;
20294;SDS011;10306;52.128;5.208;2023-02-04T01:53:56;13.70;;;2.30;;
20294;SDS011;10306;52.128;5.208;2023-02-04T01:56:23;18.13;;;3.20;;
20294;SDS011;10306;52.128;5.208;2023-02-04T01:58:53;13.43;;;3.17;;
20294;SDS011;10306;52.128;5.208;2023-02-04T02:01:36;12.83;;;2.60;;
20294;SDS011;10306;52.128;5.208;2023-02-04T02:04:03;19.33;;;3.03;;
20294;SDS011;10306;52.128;5.208;2023-02-04T02:06:29;17.40;;;2.90;;
20294;SDS011;10306;52.128;5.208;2023-02-04T02:08:55;14.73;;;2.33;;
20294;SDS011;10306;52.128;5.208;2023-02-04T02:11:22;23.37;;;3.63;;
20294;SDS011;10306;52.128;5.208;2023-02-04T02:13:48;15.43;;;3.37;;
20294;SDS011;10306;52.128;5.208;2023-02-04T02:16:14;14.53;;;2.43;;
20294;SDS011;10306;52.128;5.208;2023-02-04T02:18:40;16.97;;;3.30;;
20294;SDS011;10306;52.128;5.208;2023-02-04T02:21:08;16.20;;;3.10;;
20294;SDS011;10306;52.128;5.208;2023-02-04T02:23:45;15.23;;;2.90;;
20294;SDS011;10306;52.128;5.208;2023-02-04T02:26:11;10.30;;;3.33;;
20294;SDS011;10306;52.128;5.208;2023-02-04T02:28:37;15.43;;;2.97;;
20294;SDS011;10306;52.128;5.208;2023-02-04T02:31:04;8.17;;;2.40;;
20294;SDS011;10306;52.128;5.208;2023-02-04T02:33:30;7.60;;;2.37;;
20294;SDS011;10306;52.128;5.208;2023-02-04T02:35:56;14.93;;;3.23;;
20294;SDS011;10306;52.128;5.208;2023-02-04T02:38:22;15.50;;;2.70;;
20294;SDS011;10306;52.128;5.208;2023-02-04T02:40:48;22.73;;;3.70;;
20294;SDS011;10306;52.128;5.208;2023-02-04T02:43:17;15.80;;;2.87;;
20294;SDS011;10306;52.128;5.208;2023-02-04T02:45:44;11.90;;;2.30;;
20294;SDS011;10306;52.128;5.208;2023-02-04T02:48:10;15.93;;;3.77;;
20294;SDS011;10306;52.128;5.208;2023-02-04T02:50:36;14.87;;;3.40;;
20294;SDS011;10306;52.128;5.208;2023-02-04T02:53:02;19.57;;;3.00;;
20294;SDS011;10306;52.128;5.208;2023-02-04T02:55:29;16.10;;;2.93;;
20294;SDS011;10306;52.128;5.208;2023-02-04T02:57:55;22.93;;;2.77;;
20294;SDS011;10306;52.128;5.208;2023-02-04T03:00:22;15.33;;;2.77;;
20294;SDS011;10306;52.128;5.208;2023-02-04T03:03:11;16.20;;;2.57;;
20294;SDS011;10306;52.128;5.208;2023-02-04T03:05:37;18.40;;;2.57;;
20294;SDS011;10306;52.128;5.208;2023-02-04T03:08:04;19.23;;;2.37;;
20294;SDS011;10306;52.128;5.208;2023-02-04T03:10:31;15.80;;;2.50;;
20294;SDS011;10306;52.128;5.208;2023-02-04T03:12:58;25.70;;;3.67;;
20294;SDS011;10306;52.128;5.208;2023-02-04T03:15:24;16.53;;;2.37;;
20294;SDS011;10306;52.128;5.208;2023-02-04T03:17:50;13.40;;;2.33;;
20294;SDS011;10306;52.128;5.208;2023-02-04T03:20:20;17.53;;;3.33;;
20294;SDS011;10306;52.128;5.208;2023-02-04T03:22:47;15.10;;;2.63;;
20294;SDS011;10306;52.128;5.208;2023-02-04T03:25:13;23.83;;;2.87;;
20294;SDS011;10306;52.128;5.208;2023-02-04T03:27:39;15.47;;;2.47;;
20294;SDS011;10306;52.128;5.208;2023-02-04T03:30:05;14.80;;;2.63;;
20294;SDS011;10306;52.128;5.208;2023-02-04T03:32:31;14.50;;;2.30;;
20294;SDS011;10306;52.128;5.208;2023-02-04T03:34:57;15.33;;;2.57;;
20294;SDS011;10306;52.128;5.208;2023-02-04T03:37:23;19.57;;;3.07;;
20294;SDS011;10306;52.128;5.208;2023-02-04T03:39:49;15.20;;;2.73;;
20294;SDS011;10306;52.128;5.208;2023-02-04T03:42:14;14.37;;;2.87;;
20294;SDS011;10306;52.128;5.208;2023-02-04T03:44:41;13.97;;;3.30;;
20294;SDS011;10306;52.128;5.208;2023-02-04T03:47:07;13.07;;;3.20;;
20294;SDS011;10306;52.128;5.208;2023-02-04T03:49:33;11.17;;;2.30;;
20294;SDS011;10306;52.128;5.208;2023-02-04T03:52:00;13.80;;;3.27;;
20294;SDS011;10306;52.128;5.208;2023-02-04T03:54:26;16.33;;;3.57;;
20294;SDS011;10306;52.128;5.208;2023-02-04T03:56:52;16.73;;;2.97;;
20294;SDS011;10306;52.128;5.208;2023-02-04T03:59:18;21.47;;;2.97;;
20294;SDS011;10306;52.128;5.208;2023-02-04T04:01:44;12.23;;;2.87;;
20294;SDS011;10306;52.128;5.208;2023-02-04T04:04:10;10.73;;;3.00;;
20294;SDS011;10306;52.128;5.208;2023-02-04T04:06:36;14.13;;;2.47;;
20294;SDS011;10306;52.128;5.208;2023-02-04T04:09:02;9.47;;;2.40;;
20294;SDS011;10306;52.128;5.208;2023-02-04T04:11:29;22.70;;;3.50;;
20294;SDS011;10306;52.128;5.208;2023-02-04T04:13:55;11.93;;;2.47;;
20294;SDS011;10306;52.128;5.208;2023-02-04T04:16:20;16.53;;;3.10;;
20294;SDS011;10306;52.128;5.208;2023-02-04T04:18:46;14.60;;;2.70;;
20294;SDS011;10306;52.128;5.208;2023-02-04T04:21:12;12.27;;;2.50;;
20294;SDS011;10306;52.128;5.208;2023-02-04T04:23:38;11.53;;;2.63;;
20294;SDS011;10306;52.128;5.208;2023-02-04T04:26:04;17.30;;;2.97;;
20294;SDS011;10306;52.128;5.208;2023-02-04T04:28:30;13.07;;;3.10;;
20294;SDS011;10306;52.128;5.208;2023-02-04T04:30:56;9.73;;;2.63;;
20294;SDS011;10306;52.128;5.208;2023-02-04T04:33:22;19.10;;;2.70;;
20294;SDS011;10306;52.128;5.208;2023-02-04T04:35:48;11.47;;;2.63;;
20294;SDS011;10306;52.128;5.208;2023-02-04T04:38:14;13.03;;;3.77;;
20294;SDS011;10306;52.128;5.208;2023-02-04T04:40:40;13.30;;;2.57;;
20294;SDS011;10306;52.128;5.208;2023-02-04T04:43:06;7.87;;;2.17;;
20294;SDS011;10306;52.128;5.208;2023-02-04T04:45:32;13.77;;;3.00;;
20294;SDS011;10306;52.128;5.208;2023-02-04T04:47:58;14.27;;;2.60;;
20294;SDS011;10306;52.128;5.208;2023-02-04T04:50:24;10.80;;;2.53;;
20294;SDS011;10306;52.128;5.208;2023-02-04T04:52:50;11.37;;;2.87;;
20294;SDS011;10306;52.128;5.208;2023-02-04T04:55:16;18.63;;;3.30;;
20294;SDS011;10306;52.128;5.208;2023-02-04T04:57:42;11.13;;;2.40;;
20294;SDS011;10306;52.128;5.208;2023-02-04T05:00:09;20.53;;;2.70;;
20294;SDS011;10306;52.128;5.208;2023-02-04T05:02:36;12.33;;;2.77;;
20294;SDS011;10306;52.128;5.208;2023-02-04T05:05:02;8.80;;;2.37;;
20294;SDS011;10306;52.128;5.208;2023-02-04T05:07:28;8.83;;;2.53;;
20294;SDS011;10306;52.128;5.208;2023-02-04T05:09:54;10.33;;;2.30;;
20294;SDS011;10306;52.128;5.208;2023-02-04T05:12:20;18.20;;;2.43;;
20294;SDS011;10306;52.128;5.208;2023-02-04T05:14:46;15.73;;;2.87;;
20294;SDS011;10306;52.128;5.208;2023-02-04T05:17:12;14.77;;;2.57;;
20294;SDS011;10306;52.128;5.208;2023-02-04T05:19:38;9.10;;;2.40;;
20294;SDS011;10306;52.128;5.208;2023-02-04T05:22:04;11.27;;;3.10;;
20294;SDS011;10306;52.128;5.208;2023-02-04T05:24:30;19.77;;;3.10;;
20294;SDS011;10306;52.128;5.208;2023-02-04T05:26:56;15.77;;;3.00;;
20294;SDS011;10306;52.128;5.208;2023-02-04T05:29:22;13.93;;;2.83;;
20294;SDS011;10306;52.128;5.208;2023-02-04T05:31:48;7.93;;;2.90;;
20294;SDS011;10306;52.128;5.208;2023-02-04T05:34:14;20.50;;;2.87;;
20294;SDS011;10306;52.128;5.208;2023-02-04T05:36:40;13.60;;;2.73;;
20294;SDS011;10306;52.128;5.208;2023-02-04T05:39:06;10.97;;;2.53;;
20294;SDS011;10306;52.128;5.208;2023-02-04T05:41:32;7.53;;;2.47;;
20294;SDS011;10306;52.128;5.208;2023-02-04T05:43:58;15.20;;;2.67;;
20294;SDS011;10306;52.128;5.208;2023-02-04T05:46:24;11.27;;;2.97;;
20294;SDS011;10306;52.128;5.208;2023-02-04T05:48:50;15.80;;;2.93;;
20294;SDS011;10306;52.128;5.208;2023-02-04T05:51:16;19.87;;;3.10;;
20294;SDS011;10306;52.128;5.208;2023-02-04T05:53:42;18.13;;;3.10;;
20294;SDS011;10306;52.128;5.208;2023-02-04T05:56:07;18.67;;;3.40;;
20294;SDS011;10306;52.128;5.208;2023-02-04T05:58:33;19.20;;;4.00;;
20294;SDS011;10306;52.128;5.208;2023-02-04T06:01:00;14.13;;;3.43;;
20294;SDS011;10306;52.128;5.208;2023-02-04T06:03:26;17.57;;;4.50;;
20294;SDS011;10306;52.128;5.208;2023-02-04T06:05:53;13.27;;;3.33;;
20294;SDS011;10306;52.128;5.208;2023-02-04T06:08:19;25.03;;;4.03;;
20294;SDS011;10306;52.128;5.208;2023-02-04T06:10:45;15.77;;;3.83;;
20294;SDS011;10306;52.128;5.208;2023-02-04T06:13:11;15.40;;;3.47;;
20294;SDS011;10306;52.128;5.208;2023-02-04T06:15:37;22.00;;;4.10;;
20294;SDS011;10306;52.128;5.208;2023-02-04T06:18:03;23.13;;;3.87;;
20294;SDS011;10306;52.128;5.208;2023-02-04T06:20:29;13.53;;;3.37;;
20294;SDS011;10306;52.128;5.208;2023-02-04T06:22:54;15.03;;;3.60;;
20294;SDS011;10306;52.128;5.208;2023-02-04T06:25:21;12.63;;;3.47;;
20294;SDS011;10306;52.128;5.208;2023-02-04T06:27:47;21.50;;;4.03;;
20294;SDS011;10306;52.128;5.208;2023-02-04T06:30:13;10.97;;;3.53;;
20294;SDS011;10306;52.128;5.208;2023-02-04T06:32:39;9.90;;;3.00;;
20294;SDS011;10306;52.128;5.208;2023-02-04T06:35:05;16.67;;;3.73;;
20294;SDS011;10306;52.128;5.208;2023-02-04T06:37:31;15.17;;;3.70;;
20294;SDS011;10306;52.128;5.208;2023-02-04T06:39:57;12.33;;;3.13;;
20294;SDS011;10306;52.128;5.208;2023-02-04T06:42:23;8.33;;;2.90;;
20294;SDS011;10306;52.128;5.208;2023-02-04T06:44:50;19.33;;;4.00;;
20294;SDS011;10306;52.128;5.208;2023-02-04T06:47:16;12.10;;;3.20;;
20294;SDS011;10306;52.128;5.208;2023-02-04T06:49:42;12.93;;;3.80;;
20294;SDS011;10306;52.128;5.208;2023-02-04T06:52:08;14.33;;;3.93;;
20294;SDS011;10306;52.128;5.208;2023-02-04T06:54:35;6.47;;;2.90;;
20294;SDS011;10306;52.128;5.208;2023-02-04T06:57:02;11.83;;;3.20;;
20294;SDS011;10306;52.128;5.208;2023-02-04T06:59:34;14.63;;;3.67;;
20294;SDS011;10306;52.128;5.208;2023-02-04T07:02:00;9.73;;;3.33;;
20294;SDS011;10306;52.128;5.208;2023-02-04T07:04:26;8.90;;;2.87;;
20294;SDS011;10306;52.128;5.208;2023-02-04T07:06:52;9.60;;;3.53;;
20294;SDS011;10306;52.128;5.208;2023-02-04T07:09:18;16.30;;;4.20;;
20294;SDS011;10306;52.128;5.208;2023-02-04T07:11:44;19.53;;;3.87;;
20294;SDS011;10306;52.128;5.208;2023-02-04T07:14:10;10.30;;;4.00;;
20294;SDS011;10306;52.128;5.208;2023-02-04T07:16:36;8.87;;;4.37;;
20294;SDS011;10306;52.128;5.208;2023-02-04T07:19:02;10.03;;;3.43;;
20294;SDS011;10306;52.128;5.208;2023-02-04T07:21:28;15.83;;;3.90;;
20294;SDS011;10306;52.128;5.208;2023-02-04T07:23:54;10.10;;;3.60;;
20294;SDS011;10306;52.128;5.208;2023-02-04T07:26:20;12.30;;;3.57;;
20294;SDS011;10306;52.128;5.208;2023-02-04T07:28:46;13.67;;;3.63;;
20294;SDS011;10306;52.128;5.208;2023-02-04T07:31:12;17.70;;;3.43;;
20294;SDS011;10306;52.128;5.208;2023-02-04T07:33:38;14.10;;;4.03;;
20294;SDS011;10306;52.128;5.208;2023-02-04T07:36:04;11.03;;;3.87;;
20294;SDS011;10306;52.128;5.208;2023-02-04T07:38:30;9.47;;;2.93;;
20294;SDS011;10306;52.128;5.208;2023-02-04T07:40:56;16.37;;;4.03;;
20294;SDS011;10306;52.128;5.208;2023-02-04T07:43:22;21.20;;;3.83;;
20294;SDS011;10306;52.128;5.208;2023-02-04T07:45:48;9.77;;;3.00;;
20294;SDS011;10306;52.128;5.208;2023-02-04T07:48:14;9.10;;;3.73;;
20294;SDS011;10306;52.128;5.208;2023-02-04T07:50:40;14.37;;;3.77;;
20294;SDS011;10306;52.128;5.208;2023-02-04T07:53:06;23.57;;;4.47;;
20294;SDS011;10306;52.128;5.208;2023-02-04T07:55:32;10.30;;;3.97;;
20294;SDS011;10306;52.128;5.208;2023-02-04T07:57:58;23.63;;;4.90;;
20294;SDS011;10306;52.128;5.208;2023-02-04T08:00:24;19.37;;;5.20;;
20294;SDS011;10306;52.128;5.208;2023-02-04T08:02:50;16.17;;;5.80;;
20294;SDS011;10306;52.128;5.208;2023-02-04T08:05:16;11.13;;;4.93;;
20294;SDS011;10306;52.128;5.208;2023-02-04T08:07:42;13.63;;;5.23;;
20294;SDS011;10306;52.128;5.208;2023-02-04T08:10:09;17.70;;;4.73;;
20294;SDS011;10306;52.128;5.208;2023-02-04T08:12:35;13.63;;;4.97;;
20294;SDS011;10306;52.128;5.208;2023-02-04T08:15:01;14.70;;;5.10;;
20294;SDS011;10306;52.128;5.208;2023-02-04T08:17:27;13.87;;;5.53;;
20294;SDS011;10306;52.128;5.208;2023-02-04T08:19:53;16.77;;;6.83;;
20294;SDS011;10306;52.128;5.208;2023-02-04T08:22:20;13.27;;;5.23;;
20294;SDS011;10306;52.128;5.208;2023-02-04T08:24:46;12.97;;;5.77;;
20294;SDS011;10306;52.128;5.208;2023-02-04T08:27:12;17.20;;;5.33;;
20294;SDS011;10306;52.128;5.208;2023-02-04T08:29:38;18.60;;;5.93;;
20294;SDS011;10306;52.128;5.208;2023-02-04T08:32:04;18.00;;;6.10;;
20294;SDS011;10306;52.128;5.208;2023-02-04T08:34:30;17.30;;;6.33;;
20294;SDS011;10306;52.128;5.208;2023-02-04T08:36:56;19.30;;;6.37;;
20294;SDS011;10306;52.128;5.208;2023-02-04T08:39:22;19.73;;;7.07;;
20294;SDS011;10306;52.128;5.208;2023-02-04T08:41:48;15.83;;;5.27;;
20294;SDS011;10306;52.128;5.208;2023-02-04T08:44:15;10.43;;;5.83;;
20294;SDS011;10306;52.128;5.208;2023-02-04T08:46:41;17.43;;;6.10;;
20294;SDS011;10306;52.128;5.208;2023-02-04T08:49:07;23.30;;;5.77;;
20294;SDS011;10306;52.128;5.208;2023-02-04T08:51:33;24.53;;;6.13;;
20294;SDS011;10306;52.128;5.208;2023-02-04T08:53:59;17.67;;;5.53;;
20294;SDS011;10306;52.128;5.208;2023-02-04T08:56:25;17.13;;;5.80;;
20294;SDS011;10306;52.128;5.208;2023-02-04T08:58:51;19.30;;;5.93;;
20294;SDS011;10306;52.128;5.208;2023-02-04T09:01:17;17.83;;;6.37;;
20294;SDS011;10306;52.128;5.208;2023-02-04T09:03:43;13.03;;;5.27;;
20294;SDS011;10306;52.128;5.208;2023-02-04T09:06:09;14.67;;;5.57;;
20294;SDS011;10306;52.128;5.208;2023-02-04T09:08:35;25.20;;;6.00;;
20294;SDS011;10306;52.128;5.208;2023-02-04T09:11:01;15.63;;;5.53;;
20294;SDS011;10306;52.128;5.208;2023-02-04T09:13:28;23.07;;;5.57;;
20294;SDS011;10306;52.128;5.208;2023-02-04T09:15:54;22.47;;;5.47;;
20294;SDS011;10306;52.128;5.208;2023-02-04T09:18:20;27.13;;;5.47;;
20294;SDS011;10306;52.128;5.208;2023-02-04T09:20:50;19.60;;;5.00;;
20294;SDS011;10306;52.128;5.208;2023-02-04T09:23:16;20.53;;;4.93;;
20294;SDS011;10306;52.128;5.208;2023-02-04T09:25:43;20.47;;;5.53;;
20294;SDS011;10306;52.128;5.208;2023-02-04T09:28:10;14.43;;;5.10;;
20294;SDS011;10306;52.128;5.208;2023-02-04T09:30:39;21.87;;;5.53;;
20294;SDS011;10306;52.128;5.208;2023-02-04T09:33:06;20.43;;;5.17;;
20294;SDS011;10306;52.128;5.208;2023-02-04T09:35:32;18.33;;;5.67;;
20294;SDS011;10306;52.128;5.208;2023-02-04T09:37:58;25.87;;;5.90;;
20294;SDS011;10306;52.128;5.208;2023-02-04T09:40:26;12.67;;;4.87;;
20294;SDS011;10306;52.128;5.208;2023-02-04T09:42:52;18.07;;;5.33;;
20294;SDS011;10306;52.128;5.208;2023-02-04T09:45:23;14.83;;;4.07;;
20294;SDS011;10306;52.128;5.208;2023-02-04T09:47:51;12.43;;;4.30;;
20294;SDS011;10306;52.128;5.208;2023-02-04T09:50:19;14.47;;;4.00;;
20294;SDS011;10306;52.128;5.208;2023-02-04T09:52:45;13.63;;;3.93;;
20294;SDS011;10306;52.128;5.208;2023-02-04T09:55:15;23.63;;;4.93;;
20294;SDS011;10306;52.128;5.208;2023-02-04T09:57:42;13.77;;;4.33;;
20294;SDS011;10306;52.128;5.208;2023-02-04T10:00:13;19.77;;;4.60;;
20294;SDS011;10306;52.128;5.208;2023-02-04T10:02:39;11.50;;;3.83;;
20294;SDS011;10306;52.128;5.208;2023-02-04T10:05:05;15.53;;;3.70;;
20294;SDS011;10306;52.128;5.208;2023-02-04T10:07:31;17.17;;;4.43;;
20294;SDS011;10306;52.128;5.208;2023-02-04T10:09:57;14.73;;;3.70;;
20294;SDS011;10306;52.128;5.208;2023-02-04T10:12:23;19.10;;;3.87;;
20294;SDS011;10306;52.128;5.208;2023-02-04T10:14:49;15.83;;;3.87;;
20294;SDS011;10306;52.128;5.208;2023-02-04T10:17:18;22.00;;;4.13;;
20294;SDS011;10306;52.128;5.208;2023-02-04T10:19:44;14.97;;;4.20;;
20294;SDS011;10306;52.128;5.208;2023-02-04T10:22:14;14.13;;;3.50;;
20294;SDS011;10306;52.128;5.208;2023-02-04T10:24:41;11.23;;;3.30;;
20294;SDS011;10306;52.128;5.208;2023-02-04T10:27:08;14.87;;;3.57;;
20294;SDS011;10306;52.128;5.208;2023-02-04T10:29:35;16.37;;;3.77;;
20294;SDS011;10306;52.128;5.208;2023-02-04T10:32:01;12.57;;;3.13;;
20294;SDS011;10306;52.128;5.208;2023-02-04T10:34:34;12.83;;;3.43;;
20294;SDS011;10306;52.128;5.208;2023-02-04T10:37:10;17.03;;;3.93;;
20294;SDS011;10306;52.128;5.208;2023-02-04T10:39:40;15.63;;;2.67;;
20294;SDS011;10306;52.128;5.208;2023-02-04T10:42:17;18.23;;;3.07;;
20294;SDS011;10306;52.128;5.208;2023-02-04T10:44:47;11.63;;;3.50;;
20294;SDS011;10306;52.128;5.208;2023-02-04T10:49:39;14.00;;;3.00;;
20294;SDS011;10306;52.128;5.208;2023-02-04T10:52:12;19.53;;;3.13;;
20294;SDS011;10306;52.128;5.208;2023-02-04T10:54:40;12.50;;;3.00;;
20294;SDS011;10306;52.128;5.208;2023-02-04T10:57:10;19.37;;;3.57;;
20294;SDS011;10306;52.128;5.208;2023-02-04T10:59:39;21.33;;;3.47;;
20294;SDS011;10306;52.128;5.208;2023-02-04T11:04:46;13.57;;;2.80;;
20294;SDS011;10306;52.128;5.208;2023-02-04T11:07:13;8.13;;;2.73;;
20294;SDS011;10306;52.128;5.208;2023-02-04T11:09:42;22.37;;;3.53;;
20294;SDS011;10306;52.128;5.208;2023-02-04T11:14:56;12.60;;;3.03;;
20294;SDS011;10306;52.128;5.208;2023-02-04T11:17:29;10.23;;;2.60;;
20294;SDS011;10306;52.128;5.208;2023-02-04T11:19:55;23.23;;;3.50;;
20294;SDS011;10306;52.128;5.208;2023-02-04T11:22:23;14.30;;;2.70;;
20294;SDS011;10306;52.128;5.208;2023-02-04T11:24:49;17.80;;;3.23;;
20294;SDS011;10306;52.128;5.208;2023-02-04T11:27:21;17.80;;;3.67;;
20294;SDS011;10306;52.128;5.208;2023-02-04T11:29:47;13.13;;;2.80;;
20294;SDS011;10306;52.128;5.208;2023-02-04T11:32:30;11.73;;;2.90;;
20294;SDS011;10306;52.128;5.208;2023-02-04T11:37:38;20.47;;;3.13;;
20294;SDS011;10306;52.128;5.208;2023-02-04T11:40:24;11.33;;;3.27;;
20294;SDS011;10306;52.128;5.208;2023-02-04T11:43:10;14.67;;;3.50;;
20294;SDS011;10306;52.128;5.208;2023-02-04T11:45:37;17.13;;;3.00;;
20294;SDS011;10306;52.128;5.208;2023-02-04T11:48:14;9.27;;;3.00;;
20294;SDS011;10306;52.128;5.208;2023-02-04T11:50:40;10.90;;;3.00;;
20294;SDS011;10306;52.128;5.208;2023-02-04T11:53:10;16.47;;;4.27;;
20294;SDS011;10306;52.128;5.208;2023-02-04T11:55:42;10.83;;;3.17;;
20294;SDS011;10306;52.128;5.208;2023-02-04T11:58:15;15.00;;;2.97;;
20294;SDS011;10306;52.128;5.208;2023-02-04T12:00:41;11.90;;;3.30;;
20294;SDS011;10306;52.128;5.208;2023-02-04T12:05:45;16.40;;;3.17;;
20294;SDS011;10306;52.128;5.208;2023-02-04T12:10:38;16.40;;;3.63;;
20294;SDS011;10306;52.128;5.208;2023-02-04T12:13:11;18.63;;;3.30;;
20294;SDS011;10306;52.128;5.208;2023-02-04T12:15:37;13.53;;;2.83;;
20294;SDS011;10306;52.128;5.208;2023-02-04T12:18:05;11.13;;;2.90;;
20294;SDS011;10306;52.128;5.208;2023-02-04T12:20:32;15.07;;;3.50;;
20294;SDS011;10306;52.128;5.208;2023-02-04T12:22:58;15.50;;;4.03;;
20294;SDS011;10306;52.128;5.208;2023-02-04T12:25:24;11.77;;;3.10;;
20294;SDS011;10306;52.128;5.208;2023-02-04T12:27:51;13.63;;;3.30;;
20294;SDS011;10306;52.128;5.208;2023-02-04T12:30:18;11.97;;;4.10;;
20294;SDS011;10306;52.128;5.208;2023-02-04T12:32:44;13.40;;;3.33;;
20294;SDS011;10306;52.128;5.208;2023-02-04T12:35:10;14.63;;;3.90;;
20294;SDS011;10306;52.128;5.208;2023-02-04T12:37:36;16.10;;;3.90;;
20294;SDS011;10306;52.128;5.208;2023-02-04T12:40:02;12.83;;;3.47;;
20294;SDS011;10306;52.128;5.208;2023-02-04T12:42:28;15.57;;;3.70;;
20294;SDS011;10306;52.128;5.208;2023-02-04T12:44:54;18.37;;;4.47;;
20294;SDS011;10306;52.128;5.208;2023-02-04T12:47:20;15.00;;;3.50;;
20294;SDS011;10306;52.128;5.208;2023-02-04T12:49:46;11.20;;;3.07;;
20294;SDS011;10306;52.128;5.208;2023-02-04T12:52:12;8.73;;;3.23;;
20294;SDS011;10306;52.128;5.208;2023-02-04T12:54:38;15.27;;;4.60;;
20294;SDS011;10306;52.128;5.208;2023-02-04T12:57:04;15.30;;;3.47;;
20294;SDS011;10306;52.128;5.208;2023-02-04T12:59:30;11.50;;;3.27;;
20294;SDS011;10306;52.128;5.208;2023-02-04T13:01:56;9.73;;;3.00;;
20294;SDS011;10306;52.128;5.208;2023-02-04T13:04:23;11.47;;;3.20;;
20294;SDS011;10306;52.128;5.208;2023-02-04T13:06:49;8.57;;;3.07;;
20294;SDS011;10306;52.128;5.208;2023-02-04T13:09:15;16.33;;;3.53;;
20294;SDS011;10306;52.128;5.208;2023-02-04T13:11:41;15.10;;;4.13;;
20294;SDS011;10306;52.128;5.208;2023-02-04T13:14:07;14.20;;;2.73;;
20294;SDS011;10306;52.128;5.208;2023-02-04T13:16:32;11.37;;;2.80;;
20294;SDS011;10306;52.128;5.208;2023-02-04T13:18:58;17.17;;;3.23;;
20294;SDS011;10306;52.128;5.208;2023-02-04T13:21:24;14.57;;;2.97;;
20294;SDS011;10306;52.128;5.208;2023-02-04T13:23:50;14.23;;;3.23;;
20294;SDS011;10306;52.128;5.208;2023-02-04T13:26:16;10.73;;;3.17;;
20294;SDS011;10306;52.128;5.208;2023-02-04T13:28:42;14.03;;;2.87;;
20294;SDS011;10306;52.128;5.208;2023-02-04T13:31:08;8.83;;;2.67;;
20294;SDS011;10306;52.128;5.208;2023-02-04T13:33:34;9.93;;;3.33;;
20294;SDS011;10306;52.128;5.208;2023-02-04T13:36:00;11.07;;;3.13;;
20294;SDS011;10306;52.128;5.208;2023-02-04T13:38:26;10.03;;;3.13;;
20294;SDS011;10306;52.128;5.208;2023-02-04T13:40:52;10.30;;;2.57;;
20294;SDS011;10306;52.128;5.208;2023-02-04T13:43:18;10.57;;;3.20;;
20294;SDS011;10306;52.128;5.208;2023-02-04T13:45:44;9.43;;;2.70;;
20294;SDS011;10306;52.128;5.208;2023-02-04T13:48:13;8.30;;;2.80;;
20294;SDS011;10306;52.128;5.208;2023-02-04T13:50:39;7.73;;;2.27;;
20294;SDS011;10306;52.128;5.208;2023-02-04T13:53:05;6.13;;;2.77;;
20294;SDS011;10306;52.128;5.208;2023-02-04T13:55:32;7.60;;;2.57;;
20294;SDS011;10306;52.128;5.208;2023-02-04T13:57:58;11.93;;;2.57;;
20294;SDS011;10306;52.128;5.208;2023-02-04T14:00:24;7.50;;;2.90;;
20294;SDS011;10306;52.128;5.208;2023-02-04T14:02:50;5.93;;;2.50;;
20294;SDS011;10306;52.128;5.208;2023-02-04T14:05:16;9.47;;;2.27;;
20294;SDS011;10306;52.128;5.208;2023-02-04T14:07:42;10.03;;;2.70;;
20294;SDS011;10306;52.128;5.208;2023-02-04T14:10:08;7.73;;;2.60;;
20294;SDS011;10306;52.128;5.208;2023-02-04T14:12:34;10.50;;;2.57;;
20294;SDS011;10306;52.128;5.208;2023-02-04T14:14:59;10.33;;;2.60;;
20294;SDS011;10306;52.128;5.208;2023-02-04T14:17:25;12.30;;;2.40;;
20294;SDS011;10306;52.128;5.208;2023-02-04T14:19:51;7.63;;;2.10;;
20294;SDS011;10306;52.128;5.208;2023-02-04T14:22:17;9.53;;;2.47;;
20294;SDS011;10306;52.128;5.208;2023-02-04T14:24:43;7.10;;;2.10;;
20294;SDS011;10306;52.128;5.208;2023-02-04T14:27:11;8.67;;;2.03;;
20294;SDS011;10306;52.128;5.208;2023-02-04T14:29:37;10.77;;;2.27;;
20294;SDS011;10306;52.128;5.208;2023-02-04T14:32:03;9.03;;;2.27;;
20294;SDS011;10306;52.128;5.208;2023-02-04T14:34:29;13.27;;;2.67;;
20294;SDS011;10306;52.128;5.208;2023-02-04T14:36:55;8.07;;;2.00;;
20294;SDS011;10306;52.128;5.208;2023-02-04T14:39:21;7.93;;;1.80;;
20294;SDS011;10306;52.128;5.208;2023-02-04T14:41:47;5.03;;;1.80;;
20294;SDS011;10306;52.128;5.208;2023-02-04T14:44:13;8.83;;;2.00;;
20294;SDS011;10306;52.128;5.208;2023-02-04T14:46:44;8.70;;;2.07;;
20294;SDS011;10306;52.128;5.208;2023-02-04T14:49:12;9.27;;;2.23;;